Time;durP1;ratioP1;P1;durP2;ratioP2;P2;SDS_P1;SDS_P2;PMS_P1;PMS_P2;Temp;Humidity;BMP_temperature;BMP_pressure;BME280_temperature;BME280_humidity;BME280_pressure;Samples;Min_cycle;Max_cycle;Signal;HPM_P1;HPM_P2
2021/08/04 00:00:57;;;;;;;1.43;1.20;;;16.50;99.90;;;;;;5050210;28;20305;-81
2021/08/04 00:03:26;;;;;;;3.93;1.20;;;16.40;99.90;;;;;;5050796;28;20238;-81
2021/08/04 00:05:54;;;;;;;1.30;1.00;;;16.40;99.90;;;;;;5050660;28;20722;-81
2021/08/04 00:08:23;;;;;;;1.63;1.20;;;16.40;99.90;;;;;;5050427;28;20584;-81
2021/08/04 00:10:51;;;;;;;2.17;1.37;;;16.40;99.90;;;;;;5050300;28;20236;-81
2021/08/04 00:13:20;;;;;;;1.13;1.03;;;16.40;99.90;;;;;;5050103;28;20612;-81
2021/08/04 00:15:48;;;;;;;1.30;1.20;;;16.40;99.90;;;;;;5051188;28;20236;-82
2021/08/04 00:18:16;;;;;;;3.50;1.20;;;16.40;99.90;;;;;;5064874;28;20623;-81
2021/08/04 00:20:44;;;;;;;2.10;1.20;;;16.40;99.90;;;;;;5050230;28;20275;-81
2021/08/04 00:23:12;;;;;;;1.20;1.10;;;16.40;99.90;;;;;;5069628;28;20239;-81
2021/08/04 00:25:42;;;;;;;1.80;1.27;;;16.30;99.90;;;;;;5070176;28;20305;-81
2021/08/04 00:28:10;;;;;;;1.60;1.37;;;16.30;99.90;;;;;;5049595;28;20236;-81
2021/08/04 00:30:38;;;;;;;1.27;1.17;;;16.40;99.90;;;;;;5049312;28;20240;-81
2021/08/04 00:33:06;;;;;;;1.70;1.17;;;16.40;99.90;;;;;;5049481;28;20696;-80
2021/08/04 00:35:35;;;;;;;1.70;1.30;;;16.40;99.90;;;;;;5048246;28;20266;-85
2021/08/04 00:38:10;;;;;;;1.83;1.20;;;16.40;99.90;;;;;;5047518;28;20314;-81
2021/08/04 00:40:39;;;;;;;1.23;1.13;;;16.40;99.90;;;;;;5047908;28;20254;-80
2021/08/04 00:43:09;;;;;;;2.77;1.50;;;16.40;99.90;;;;;;5064437;28;20242;-81
2021/08/04 00:45:38;;;;;;;1.30;1.10;;;16.30;99.90;;;;;;5048246;28;20708;-81
2021/08/04 00:48:07;;;;;;;1.67;1.20;;;16.30;99.90;;;;;;5028169;28;20754;-81
2021/08/04 00:50:37;;;;;;;1.20;1.10;;;16.30;99.90;;;;;;5029550;28;20240;-81
2021/08/04 00:53:19;;;;;;;2.00;1.50;;;16.20;99.90;;;;;;5058777;28;20243;-81
2021/08/04 00:55:48;;;;;;;1.20;1.00;;;16.20;99.90;;;;;;5029318;28;20699;-81
2021/08/04 00:58:20;;;;;;;1.50;1.40;;;16.20;99.90;;;;;;5049732;28;20323;-81
2021/08/04 01:00:53;;;;;;;2.47;1.23;;;16.20;99.90;;;;;;5064983;28;20236;-81
2021/08/04 01:03:23;;;;;;;1.40;1.30;;;16.30;99.90;;;;;;5048082;28;20301;-82
2021/08/04 01:05:56;;;;;;;1.53;1.13;;;16.30;99.90;;;;;;5049509;28;20231;-82
2021/08/04 01:08:30;;;;;;;1.47;1.30;;;16.20;99.90;;;;;;5068064;28;20306;-81
2021/08/04 01:11:00;;;;;;;2.67;1.37;;;16.10;99.90;;;;;;5067262;28;20238;-81
2021/08/04 01:13:34;;;;;;;2.83;1.50;;;16.10;99.90;;;;;;5050209;28;20243;-80
2021/08/04 01:16:07;;;;;;;2.53;1.17;;;16.00;99.90;;;;;;5050494;28;20577;-81
2021/08/04 01:18:41;;;;;;;1.23;1.10;;;15.90;99.90;;;;;;5067738;28;20231;-80
2021/08/04 01:21:11;;;;;;;2.57;1.20;;;15.90;99.90;;;;;;5056927;28;20691;-80
2021/08/04 01:23:48;;;;;;;1.30;1.03;;;15.90;99.90;;;;;;5046084;28;20589;-80
2021/08/04 01:26:30;;;;;;;1.67;1.20;;;15.90;99.90;;;;;;5049232;28;20318;-80
2021/08/04 01:29:01;;;;;;;1.50;1.40;;;15.80;99.90;;;;;;5047081;28;20231;-80
2021/08/04 01:31:32;;;;;;;3.10;1.20;;;15.80;99.90;;;;;;5055039;28;20314;-81
2021/08/04 01:34:02;;;;;;;4.03;1.40;;;15.80;99.90;;;;;;5062429;28;20231;-80
2021/08/04 01:36:31;;;;;;;1.47;1.23;;;15.70;99.90;;;;;;5043768;28;20338;-81
2021/08/04 01:39:03;;;;;;;6.53;1.40;;;15.70;99.90;;;;;;5044311;28;20278;-80
2021/08/04 01:41:36;;;;;;;2.37;1.37;;;15.70;99.90;;;;;;5040968;28;20289;-81
2021/08/04 01:44:06;;;;;;;2.23;1.30;;;15.70;99.90;;;;;;5048570;28;20281;-81
2021/08/04 01:46:36;;;;;;;1.70;1.00;;;15.70;99.90;;;;;;5055194;28;20254;-80
2021/08/04 01:49:05;;;;;;;1.30;1.20;;;15.70;99.90;;;;;;5067863;28;20288;-80
2021/08/04 01:51:34;;;;;;;1.20;1.10;;;15.70;99.90;;;;;;5067991;28;20242;-80
2021/08/04 01:54:03;;;;;;;1.60;1.40;;;15.70;99.90;;;;;;5052825;28;20255;-80
2021/08/04 01:56:31;;;;;;;1.97;1.30;;;15.70;99.90;;;;;;5054969;28;20737;-80
2021/08/04 01:59:01;;;;;;;1.50;1.40;;;15.70;99.90;;;;;;5066921;28;20699;-81
2021/08/04 02:01:29;;;;;;;1.90;1.20;;;15.70;99.90;;;;;;5067766;28;20238;-80
2021/08/04 02:03:57;;;;;;;1.67;1.33;;;15.70;99.90;;;;;;5054197;28;20240;-80
2021/08/04 02:06:31;;;;;;;1.93;1.73;;;15.60;99.90;;;;;;5046917;28;20289;-81
2021/08/04 02:09:03;;;;;;;1.40;1.20;;;15.60;99.90;;;;;;5063330;28;20227;-80
2021/08/04 02:11:46;;;;;;;2.57;1.40;;;15.60;99.90;;;;;;5046023;28;20252;-80
2021/08/04 02:14:20;;;;;;;2.33;1.10;;;15.60;99.90;;;;;;5046243;28;20243;-80
2021/08/04 02:16:56;;;;;;;3.10;1.57;;;15.60;99.90;;;;;;5037011;28;20243;-81
2021/08/04 02:19:32;;;;;;;2.07;1.47;;;15.60;99.90;;;;;;5028395;28;20616;-81
2021/08/04 02:22:04;;;;;;;2.83;1.50;;;15.60;99.90;;;;;;5044068;28;20231;-81
2021/08/04 02:24:38;;;;;;;1.87;1.67;;;15.60;99.90;;;;;;5045709;28;20250;-80
2021/08/04 02:27:07;;;;;;;3.60;1.70;;;15.50;99.90;;;;;;5046234;28;20603;-81
2021/08/04 02:29:42;;;;;;;4.17;1.87;;;15.50;99.90;;;;;;5046350;28;20323;-80
2021/08/04 02:32:10;;;;;;;3.23;1.90;;;15.50;99.90;;;;;;5042726;28;20708;-82
2021/08/04 02:34:39;;;;;;;3.97;1.93;;;15.50;99.90;;;;;;5029483;28;20245;-80
2021/08/04 02:37:08;;;;;;;4.07;2.07;;;15.50;99.90;;;;;;5054701;28;20246;-80
2021/08/04 02:39:36;;;;;;;5.30;2.10;;;15.40;99.90;;;;;;5063049;28;20759;-80
2021/08/04 02:42:06;;;;;;;4.40;2.37;;;15.40;99.90;;;;;;5045402;28;20301;-81
2021/08/04 02:44:34;;;;;;;3.23;1.80;;;15.50;99.90;;;;;;5045365;28;20241;-80
2021/08/04 02:47:04;;;;;;;9.43;2.17;;;15.50;99.90;;;;;;5041795;28;20240;-81
2021/08/04 02:49:34;;;;;;;6.13;2.20;;;15.50;99.90;;;;;;5027767;28;20237;-81
2021/08/04 02:52:03;;;;;;;6.87;1.87;;;15.60;99.90;;;;;;5065040;28;20234;-81
2021/08/04 02:54:31;;;;;;;5.30;1.90;;;15.50;99.90;;;;;;5065684;28;20714;-80
2021/08/04 02:57:00;;;;;;;6.77;2.20;;;15.40;99.90;;;;;;5058096;28;20305;-80
2021/08/04 02:59:28;;;;;;;6.77;2.33;;;15.30;99.90;;;;;;5065337;28;20235;-80
2021/08/04 03:01:56;;;;;;;12.43;2.40;;;15.30;99.90;;;;;;5061635;28;20317;-81
2021/08/04 03:04:26;;;;;;;6.80;2.40;;;15.30;99.90;;;;;;5064935;28;20258;-80
2021/08/04 03:06:54;;;;;;;3.87;2.23;;;15.30;99.90;;;;;;5047247;28;20607;-79
2021/08/04 03:09:22;;;;;;;7.33;2.10;;;15.30;99.90;;;;;;5046721;28;20239;-80
2021/08/04 03:11:50;;;;;;;7.00;1.90;;;15.30;99.90;;;;;;5044081;28;20236;-80
2021/08/04 03:14:19;;;;;;;7.83;2.00;;;15.40;99.90;;;;;;5044754;28;20232;-80
2021/08/04 03:16:47;;;;;;;10.30;2.53;;;15.50;99.90;;;;;;5054195;28;20247;-81
2021/08/04 03:19:16;;;;;;;7.27;2.00;;;15.40;99.90;;;;;;5064918;28;20690;-80
2021/08/04 03:21:46;;;;;;;8.37;1.97;;;15.40;99.90;;;;;;5048759;28;20243;-80
2021/08/04 03:24:14;;;;;;;11.23;2.00;;;15.40;99.90;;;;;;5041010;28;20323;-81
2021/08/04 03:26:43;;;;;;;6.80;1.97;;;15.40;99.90;;;;;;5036563;28;20616;-80
2021/08/04 03:29:11;;;;;;;7.17;2.07;;;15.40;99.90;;;;;;5046296;28;20263;-80
2021/08/04 03:31:39;;;;;;;8.07;2.53;;;15.50;99.90;;;;;;5036115;28;20261;-80
2021/08/04 03:34:07;;;;;;;6.73;2.03;;;15.50;99.90;;;;;;5044394;28;20232;-80
2021/08/04 03:36:35;;;;;;;7.07;2.10;;;15.40;99.90;;;;;;5043963;28;20510;-80
2021/08/04 03:39:05;;;;;;;4.97;2.03;;;15.40;99.90;;;;;;5045810;28;20255;-81
2021/08/04 03:41:36;;;;;;;7.47;2.60;;;15.30;99.90;;;;;;5045406;28;20323;-82
2021/08/04 03:44:05;;;;;;;4.00;1.90;;;15.20;99.90;;;;;;5045449;28;20246;-82
2021/08/04 03:46:33;;;;;;;7.13;2.10;;;15.30;99.90;;;;;;5046084;28;20286;-81
2021/08/04 03:49:02;;;;;;;4.60;2.00;;;15.30;99.90;;;;;;5045959;28;20641;-81
2021/08/04 03:51:30;;;;;;;4.50;1.70;;;15.40;99.90;;;;;;5060326;28;20244;-83
2021/08/04 03:53:58;;;;;;;4.07;1.83;;;15.40;99.90;;;;;;5045504;28;20234;-81
2021/08/04 03:56:27;;;;;;;4.07;1.80;;;15.40;99.90;;;;;;5051124;28;20259;-82
2021/08/04 03:58:55;;;;;;;4.60;2.20;;;15.30;99.90;;;;;;5044700;28;20236;-82
2021/08/04 04:01:23;;;;;;;5.87;2.03;;;15.30;99.90;;;;;;5045333;28;20236;-82
2021/08/04 04:03:52;;;;;;;3.60;1.70;;;15.20;99.90;;;;;;5045497;28;20246;-82
2021/08/04 04:06:20;;;;;;;5.83;1.90;;;15.20;99.90;;;;;;5050803;28;20269;-82
2021/08/04 04:08:48;;;;;;;3.60;1.87;;;15.20;99.90;;;;;;5047330;28;20250;-81
2021/08/04 04:11:16;;;;;;;4.10;1.90;;;15.30;99.90;;;;;;5045646;28;20259;-83
2021/08/04 04:13:46;;;;;;;2.77;1.80;;;15.30;99.90;;;;;;5048829;28;20327;-82
2021/08/04 04:16:14;;;;;;;4.30;1.60;;;15.30;99.90;;;;;;5049294;28;20715;-82
2021/08/04 04:18:42;;;;;;;3.03;1.90;;;15.30;99.90;;;;;;5048312;28;20231;-81
2021/08/04 04:21:10;;;;;;;3.47;1.90;;;15.30;99.90;;;;;;5048675;28;20236;-82
2021/08/04 04:23:38;;;;;;;4.57;1.87;;;15.30;99.90;;;;;;5048676;28;20240;-81
2021/08/04 04:26:07;;;;;;;2.23;1.60;;;15.30;99.90;;;;;;5048807;28;20769;-81
2021/08/04 04:28:35;;;;;;;4.53;1.97;;;15.30;99.90;;;;;;5048509;28;20428;-82
2021/08/04 04:31:04;;;;;;;2.67;1.70;;;15.30;99.90;;;;;;5048143;28;20240;-82
2021/08/04 04:33:32;;;;;;;3.57;1.80;;;15.30;99.90;;;;;;5048519;28;20907;-81
2021/08/04 04:36:00;;;;;;;3.80;2.10;;;15.30;99.90;;;;;;5051250;28;20266;-81
2021/08/04 04:38:29;;;;;;;5.63;1.60;;;15.30;99.90;;;;;;5063224;28;20248;-82
2021/08/04 04:40:57;;;;;;;3.50;1.60;;;15.30;99.90;;;;;;5033491;28;20244;-81
2021/08/04 04:43:25;;;;;;;4.27;1.90;;;15.30;99.90;;;;;;5068281;28;20231;-82
2021/08/04 04:45:53;;;;;;;4.07;1.80;;;15.30;99.90;;;;;;5068423;28;20628;-82
2021/08/04 04:48:22;;;;;;;2.43;1.70;;;15.30;99.90;;;;;;5067486;28;20259;-82
2021/08/04 04:50:51;;;;;;;5.90;1.87;;;15.30;99.90;;;;;;5049177;28;20285;-82
2021/08/04 04:53:19;;;;;;;5.33;2.43;;;15.30;99.90;;;;;;5066817;28;20237;-82
2021/08/04 04:55:47;;;;;;;3.93;2.07;;;15.30;99.90;;;;;;5068366;28;20321;-82
2021/08/04 04:58:15;;;;;;;4.40;1.90;;;15.30;99.90;;;;;;5068310;28;20744;-82
2021/08/04 05:00:43;;;;;;;2.67;1.90;;;15.40;99.90;;;;;;5050085;28;20300;-81
2021/08/04 05:03:12;;;;;;;4.70;2.00;;;15.40;99.90;;;;;;5047774;28;20305;-81
2021/08/04 05:05:42;;;;;;;4.37;2.07;;;15.50;99.90;;;;;;5048361;28;20451;-82
2021/08/04 05:08:10;;;;;;;3.60;1.90;;;15.40;99.90;;;;;;5028158;28;20236;-81
2021/08/04 05:10:38;;;;;;;3.00;2.00;;;15.40;99.90;;;;;;5041060;28;20286;-81
2021/08/04 05:13:06;;;;;;;3.13;2.10;;;15.50;99.90;;;;;;5067383;28;20319;-82
2021/08/04 05:15:34;;;;;;;2.90;2.10;;;15.50;99.90;;;;;;5067923;28;20292;-82
2021/08/04 05:18:03;;;;;;;4.27;2.20;;;15.40;99.90;;;;;;5048171;28;20246;-82
2021/08/04 05:20:31;;;;;;;4.80;2.50;;;15.30;99.90;;;;;;5047045;28;20236;-82
2021/08/04 05:23:00;;;;;;;6.50;2.70;;;15.40;99.90;;;;;;5065938;28;20227;-82
2021/08/04 05:25:29;;;;;;;5.00;2.20;;;15.40;99.90;;;;;;5067595;28;20485;-83
2021/08/04 05:27:57;;;;;;;6.03;2.20;;;15.40;99.90;;;;;;5044511;28;20253;-82
2021/08/04 05:30:26;;;;;;;4.73;2.03;;;15.40;99.90;;;;;;5047437;28;20231;-82
2021/08/04 05:32:54;;;;;;;5.93;2.70;;;15.30;99.90;;;;;;5065585;28;20259;-83
2021/08/04 05:35:22;;;;;;;5.57;2.20;;;15.40;99.90;;;;;;5067767;28;20267;-82
2021/08/04 05:37:50;;;;;;;3.80;1.97;;;15.40;99.90;;;;;;5049146;28;20487;-81
2021/08/04 05:40:19;;;;;;;9.73;2.50;;;15.50;99.90;;;;;;5046938;28;20305;-82
2021/08/04 05:42:48;;;;;;;8.87;2.60;;;15.50;99.90;;;;;;5045310;28;20247;-82
2021/08/04 05:45:16;;;;;;;5.83;1.93;;;15.50;99.90;;;;;;5046038;28;20255;-82
2021/08/04 05:47:44;;;;;;;6.83;2.50;;;15.70;99.90;;;;;;5063805;28;20243;-82
2021/08/04 05:50:13;;;;;;;6.93;2.00;;;15.70;99.90;;;;;;5066870;28;20231;-82
2021/08/04 05:52:41;;;;;;;8.83;2.07;;;15.70;99.90;;;;;;5047948;28;20268;-82
2021/08/04 05:55:10;;;;;;;7.30;2.40;;;15.80;99.90;;;;;;5047134;28;20242;-82
2021/08/04 05:57:40;;;;;;;10.43;2.40;;;15.70;99.90;;;;;;5057819;28;20343;-81
2021/08/04 06:00:10;;;;;;;6.90;2.00;;;15.70;99.90;;;;;;5045646;28;21864;-82
2021/08/04 06:02:38;;;;;;;11.70;2.10;;;15.80;99.90;;;;;;5061819;28;20319;-82
2021/08/04 06:05:07;;;;;;;8.03;2.30;;;15.80;99.90;;;;;;5066475;28;20249;-82
2021/08/04 06:07:35;;;;;;;7.90;2.20;;;15.80;99.90;;;;;;5066281;28;20235;-81
2021/08/04 06:10:04;;;;;;;8.73;2.37;;;15.80;99.90;;;;;;5044654;28;20439;-82
2021/08/04 06:12:33;;;;;;;7.47;2.33;;;15.80;99.90;;;;;;5035990;28;20669;-82
2021/08/04 06:15:06;;;;;;;9.33;2.37;;;15.70;99.90;;;;;;5042240;28;21257;-83
2021/08/04 06:17:36;;;;;;;7.70;2.17;;;15.80;99.90;;;;;;5028021;28;20240;-82
2021/08/04 06:20:05;;;;;;;5.80;1.77;;;15.80;99.90;;;;;;5042230;28;20725;-82
2021/08/04 06:22:34;;;;;;;6.53;1.77;;;15.90;99.90;;;;;;5036226;28;20266;-82
2021/08/04 06:25:02;;;;;;;8.30;2.20;;;16.00;99.90;;;;;;5038671;28;20768;-82
2021/08/04 06:27:30;;;;;;;5.73;1.90;;;16.00;99.90;;;;;;5045079;28;20247;-82
2021/08/04 06:30:01;;;;;;;4.63;1.97;;;16.00;99.90;;;;;;5037594;28;20901;-83
2021/08/04 06:32:31;;;;;;;7.67;1.53;;;16.00;99.90;;;;;;5033117;28;20246;-83
2021/08/04 06:34:59;;;;;;;4.33;1.60;;;16.00;99.90;;;;;;5038292;28;20239;-81
2021/08/04 06:37:27;;;;;;;6.27;1.90;;;15.90;99.90;;;;;;5041389;28;20497;-82
2021/08/04 06:39:55;;;;;;;5.13;1.60;;;16.00;99.90;;;;;;5045730;28;20633;-82
2021/08/04 06:42:23;;;;;;;3.50;1.77;;;16.00;99.90;;;;;;5030960;28;20238;-82
2021/08/04 06:44:51;;;;;;;3.43;1.63;;;16.00;99.90;;;;;;5043372;28;20722;-82
2021/08/04 06:47:19;;;;;;;3.73;1.60;;;16.00;99.90;;;;;;5031292;28;20278;-82
2021/08/04 06:49:49;;;;;;;3.77;1.60;;;16.00;99.90;;;;;;5040363;28;22958;-82
2021/08/04 06:52:17;;;;;;;5.03;1.60;;;16.10;99.90;;;;;;5031386;28;20560;-83
2021/08/04 06:54:45;;;;;;;5.93;1.67;;;16.20;99.90;;;;;;5039645;28;20243;-83
2021/08/04 06:57:13;;;;;;;3.13;1.57;;;16.20;99.90;;;;;;5034190;28;20244;-82
2021/08/04 06:59:42;;;;;;;3.93;1.57;;;16.30;99.90;;;;;;5036797;28;20242;-82
2021/08/04 07:02:10;;;;;;;4.77;1.60;;;16.30;99.90;;;;;;5031869;28;20745;-81
2021/08/04 07:04:38;;;;;;;5.17;1.70;;;16.40;99.90;;;;;;5032368;28;20735;-82
2021/08/04 07:07:07;;;;;;;3.10;1.87;;;16.40;99.90;;;;;;5039838;28;20243;-82
2021/08/04 07:09:36;;;;;;;5.10;1.57;;;16.40;99.90;;;;;;5042956;28;20654;-82
2021/08/04 07:12:06;;;;;;;5.07;1.83;;;16.50;99.90;;;;;;5035208;28;20251;-82
2021/08/04 07:14:34;;;;;;;4.83;1.80;;;16.50;99.90;;;;;;5033628;28;20260;-83
2021/08/04 07:17:03;;;;;;;5.50;1.83;;;16.60;99.90;;;;;;5049374;28;20243;-82
2021/08/04 07:19:33;;;;;;;4.50;1.80;;;16.70;99.90;;;;;;5042965;28;20338;-82
2021/08/04 07:22:01;;;;;;;4.43;1.80;;;16.70;99.90;;;;;;5038923;28;21195;-82
2021/08/04 07:24:31;;;;;;;3.43;1.70;;;16.80;99.90;;;;;;5034127;28;20243;-83
2021/08/04 07:26:59;;;;;;;6.77;1.90;;;16.80;99.90;;;;;;5046002;28;22087;-83
2021/08/04 07:29:27;;;;;;;6.00;1.67;;;16.80;99.90;;;;;;5044370;28;20266;-82
2021/08/04 07:31:55;;;;;;;3.87;1.63;;;16.90;99.90;;;;;;5042710;28;20251;-83
2021/08/04 07:34:24;;;;;;;2.70;1.70;;;16.90;99.90;;;;;;5038588;28;20497;-82
2021/08/04 07:36:53;;;;;;;4.57;2.07;;;17.00;99.90;;;;;;5038976;28;20719;-81
2021/08/04 07:39:22;;;;;;;4.90;1.70;;;17.00;99.90;;;;;;5035834;28;20232;-81
2021/08/04 07:41:56;;;;;;;2.83;1.43;;;17.10;99.90;;;;;;5037515;28;20318;-81
2021/08/04 07:44:24;;;;;;;3.70;1.67;;;17.20;99.90;;;;;;5031292;28;20236;-81
2021/08/04 07:46:54;;;;;;;3.23;1.70;;;17.40;99.90;;;;;;5032621;28;20235;-81
2021/08/04 07:49:23;;;;;;;2.40;1.70;;;17.40;99.90;;;;;;5046845;28;20273;-81
2021/08/04 07:51:51;;;;;;;2.87;1.80;;;17.50;99.90;;;;;;5042311;28;20342;-80
2021/08/04 07:54:20;;;;;;;4.77;1.90;;;17.60;99.90;;;;;;5039382;28;20240;-81
2021/08/04 07:56:48;;;;;;;3.13;1.63;;;17.70;99.90;;;;;;5041362;28;20290;-81
2021/08/04 07:59:17;;;;;;;4.00;1.73;;;17.90;99.90;;;;;;5040674;28;20264;-81
2021/08/04 08:01:45;;;;;;;2.47;1.50;;;17.90;99.90;;;;;;5038657;28;20225;-82
2021/08/04 08:04:14;;;;;;;2.50;1.30;;;17.90;99.90;;;;;;5038695;28;20310;-81
2021/08/04 08:06:43;;;;;;;3.27;1.57;;;17.90;99.90;;;;;;5048449;28;20270;-81
2021/08/04 08:09:13;;;;;;;2.13;1.40;;;17.90;99.90;;;;;;5048785;28;20495;-82
2021/08/04 08:11:41;;;;;;;2.27;1.50;;;17.90;99.90;;;;;;5060684;28;20249;-82
2021/08/04 08:14:09;;;;;;;1.73;1.30;;;17.90;99.90;;;;;;5042944;28;20869;-81
2021/08/04 08:16:39;;;;;;;2.10;1.40;;;17.80;99.90;;;;;;5042959;28;20251;-81
2021/08/04 08:19:07;;;;;;;2.83;1.60;;;17.80;99.90;;;;;;5044306;28;20243;-81
2021/08/04 08:21:36;;;;;;;2.43;1.47;;;17.90;99.90;;;;;;5039960;28;20286;-82
2021/08/04 08:24:04;;;;;;;2.33;1.40;;;18.00;99.90;;;;;;5045728;28;20236;-82
2021/08/04 08:26:33;;;;;;;1.53;1.20;;;18.10;99.90;;;;;;5048714;28;20237;-82
2021/08/04 08:29:01;;;;;;;3.73;1.37;;;18.20;99.90;;;;;;5040559;28;20468;-82
2021/08/04 08:31:30;;;;;;;3.53;1.10;;;18.30;99.90;;;;;;5025911;28;20337;-82
2021/08/04 08:34:00;;;;;;;2.40;1.90;;;18.40;99.90;;;;;;5040711;28;20241;-82
2021/08/04 08:36:29;;;;;;;2.33;1.30;;;18.40;99.90;;;;;;5039470;28;20241;-81
2021/08/04 08:38:59;;;;;;;1.97;1.40;;;18.50;99.90;;;;;;5046991;28;20243;-81
2021/08/04 08:41:28;;;;;;;2.27;1.50;;;18.50;99.90;;;;;;5044960;28;20317;-81
2021/08/04 08:43:57;;;;;;;3.23;1.40;;;18.40;99.90;;;;;;5039963;28;20265;-82
2021/08/04 08:46:28;;;;;;;2.23;1.30;;;18.40;99.90;;;;;;5041601;28;20250;-82
2021/08/04 08:48:57;;;;;;;2.13;1.67;;;18.50;99.90;;;;;;5047246;28;20723;-82
2021/08/04 08:51:26;;;;;;;1.87;1.60;;;18.40;99.90;;;;;;5037667;28;20329;-82
2021/08/04 08:53:55;;;;;;;4.23;1.63;;;18.50;99.90;;;;;;5037409;28;20237;-82
2021/08/04 08:56:24;;;;;;;1.70;1.60;;;18.50;99.90;;;;;;5041244;28;20728;-82
2021/08/04 08:58:54;;;;;;;1.97;1.27;;;18.60;99.90;;;;;;5045566;28;20247;-81
2021/08/04 09:01:32;;;;;;;2.57;1.70;;;18.60;99.90;;;;;;5044686;28;20690;-81
2021/08/04 09:04:04;;;;;;;2.53;1.60;;;18.50;99.90;;;;;;5044077;28;20248;-82
2021/08/04 09:06:50;;;;;;;1.70;1.33;;;18.50;99.90;;;;;;5044696;28;20545;-82
2021/08/04 09:09:20;;;;;;;2.80;1.50;;;18.40;99.90;;;;;;5047632;28;20628;-82
2021/08/04 09:11:50;;;;;;;2.47;1.47;;;18.50;99.90;;;;;;5037105;28;20254;-82
2021/08/04 09:14:26;;;;;;;2.30;1.60;;;18.60;99.90;;;;;;5028685;28;20315;-82
2021/08/04 09:17:03;;;;;;;1.40;1.30;;;18.50;99.90;;;;;;5042775;28;20298;-82
2021/08/04 09:19:33;;;;;;;1.67;1.37;;;18.50;99.90;;;;;;5059740;28;20240;-82
2021/08/04 09:22:11;;;;;;;3.00;1.40;;;18.60;99.90;;;;;;5042555;28;20276;-83
2021/08/04 09:25:14;;;;;;;3.47;1.63;;;18.60;99.90;;;;;;5037255;28;20250;-82
2021/08/04 09:27:48;;;;;;;2.27;1.50;;;18.70;99.90;;;;;;5047120;28;20342;-82
2021/08/04 09:30:22;;;;;;;1.80;1.43;;;18.70;99.90;;;;;;5040826;28;20265;-81
2021/08/04 09:32:51;;;;;;;1.87;1.40;;;18.60;99.90;;;;;;5027950;28;20284;-82
2021/08/04 09:35:21;;;;;;;2.00;1.30;;;18.50;99.90;;;;;;5027826;28;20237;-82
2021/08/04 09:37:51;;;;;;;2.63;1.30;;;18.50;99.90;;;;;;5025190;28;20736;-82
2021/08/04 09:40:21;;;;;;;2.30;1.53;;;18.60;99.90;;;;;;5015187;28;20231;-82
2021/08/04 09:42:52;;;;;;;5.53;1.47;;;18.60;99.90;;;;;;5026403;28;20318;-82
2021/08/04 09:45:23;;;;;;;2.13;1.40;;;18.60;99.90;;;;;;5026849;28;20609;-82
2021/08/04 09:47:57;;;;;;;3.57;1.50;;;18.60;99.90;;;;;;5018390;28;20234;-82
2021/08/04 09:50:25;;;;;;;1.57;1.47;;;18.70;99.90;;;;;;5017858;28;20238;-82
2021/08/04 09:52:56;;;;;;;3.53;1.30;;;18.70;99.90;;;;;;5015112;28;20752;-81
2021/08/04 09:55:25;;;;;;;2.77;1.43;;;18.70;99.90;;;;;;5016205;28;20296;-82
2021/08/04 09:57:55;;;;;;;1.77;1.33;;;18.70;99.90;;;;;;5012904;28;20270;-83
2021/08/04 10:00:23;;;;;;;2.33;1.40;;;18.80;99.90;;;;;;5012382;28;20664;-83
2021/08/04 10:02:52;;;;;;;1.60;1.50;;;18.70;99.90;;;;;;5041868;28;20241;-82
2021/08/04 10:05:22;;;;;;;4.57;1.53;;;18.70;99.90;;;;;;5029335;28;20281;-81
2021/08/04 10:08:02;;;;;;;2.27;1.60;;;18.80;99.90;;;;;;5028883;28;20258;-82
2021/08/04 10:10:32;;;;;;;3.07;1.50;;;18.90;99.90;;;;;;5025684;28;20257;-83
2021/08/04 10:13:02;;;;;;;1.87;1.67;;;18.90;99.90;;;;;;5027869;28;20283;-82
2021/08/04 10:15:33;;;;;;;2.87;1.40;;;18.90;99.90;;;;;;5009211;28;20247;-82
2021/08/04 10:18:02;;;;;;;3.30;1.53;;;19.00;99.90;;;;;;5008705;28;20270;-82
2021/08/04 10:20:31;;;;;;;1.67;1.57;;;19.20;99.90;;;;;;5027009;28;20242;-82
2021/08/04 10:23:05;;;;;;;2.63;1.50;;;19.30;99.90;;;;;;5028201;28;20775;-83
2021/08/04 10:25:34;;;;;;;1.73;1.53;;;19.40;99.90;;;;;;5027666;28;20251;-83
2021/08/04 10:28:04;;;;;;;1.67;1.30;;;19.50;99.90;;;;;;5042303;28;20314;-81
2021/08/04 10:30:33;;;;;;;1.83;1.60;;;19.80;99.90;;;;;;5031947;28;20730;-80
2021/08/04 10:33:03;;;;;;;3.97;1.67;;;19.80;99.90;;;;;;5046695;28;20243;-81
2021/08/04 10:35:32;;;;;;;3.00;1.60;;;19.90;99.90;;;;;;5046938;28;20243;-82
2021/08/04 10:38:01;;;;;;;1.93;1.40;;;20.10;99.90;;;;;;5048287;28;20269;-82
2021/08/04 10:40:31;;;;;;;5.70;1.77;;;20.10;99.90;;;;;;5046700;28;20239;-82
2021/08/04 10:42:59;;;;;;;3.80;1.53;;;20.20;99.90;;;;;;5043584;28;20687;-82
2021/08/04 10:45:36;;;;;;;3.90;1.97;;;20.10;99.90;;;;;;5045459;28;20731;-80
2021/08/04 10:48:23;;;;;;;2.23;1.80;;;19.80;99.90;;;;;;5045635;28;20581;-82
2021/08/04 10:51:15;;;;;;;3.27;2.00;;;19.80;99.90;;;;;;5043348;28;24137;-83
2021/08/04 10:54:14;;;;;;;6.50;1.83;;;19.70;99.90;;;;;;5046885;28;20840;-82
2021/08/04 10:57:09;;;;;;;5.10;1.80;;;19.60;99.90;;;;;;5041220;28;20637;-84
2021/08/04 10:59:47;;;;;;;2.10;1.60;;;19.80;99.90;;;;;;4938578;28;10001034;-83
2021/08/04 11:02:32;;;;;;;2.90;1.60;;;19.90;99.90;;;;;;692462;28;10002052;-83
2021/08/04 11:05:02;;;;;;;3.80;1.90;;;19.90;99.90;;;;;;5045573;28;20246;-84
2021/08/04 11:07:30;;;;;;;4.93;2.20;;;20.00;99.90;;;;;;5041257;28;20246;-85
2021/08/04 11:10:04;;;;;;;3.63;2.10;;;20.30;99.90;;;;;;5045491;28;20238;-84
2021/08/04 11:12:47;;;;;;;3.40;2.07;;;20.40;99.90;;;;;;5046190;28;20733;-84
2021/08/04 11:15:30;;;;;;;4.27;2.20;;;20.50;99.90;;;;;;5043316;28;20580;-83
2021/08/04 11:18:05;;;;;;;4.60;2.20;;;20.70;99.90;;;;;;5045682;28;20231;-84
2021/08/04 11:20:34;;;;;;;4.13;1.93;;;20.80;99.90;;;;;;5045551;28;20252;-84
2021/08/04 11:23:05;;;;;;;3.10;2.10;;;21.00;99.90;;;;;;5047268;28;20322;-84
2021/08/04 11:25:42;;;;;;;2.07;1.53;;;21.00;99.90;;;;;;5049199;28;20255;-83
2021/08/04 11:28:21;;;;;;;1.97;1.70;;;21.10;99.90;;;;;;5028183;28;20241;-84
2021/08/04 11:30:53;;;;;;;3.93;1.80;;;21.20;99.90;;;;;;5029311;28;20297;-83
2021/08/04 11:33:39;;;;;;;3.27;2.13;;;21.00;99.90;;;;;;5068010;28;20250;-81
2021/08/04 11:36:16;;;;;;;2.10;1.80;;;21.20;99.90;;;;;;5052827;28;20623;-85
2021/08/04 11:38:51;;;;;;;2.50;2.20;;;21.20;99.90;;;;;;5038985;28;20296;-84
2021/08/04 11:41:31;;;;;;;2.57;1.80;;;21.10;99.90;;;;;;5052906;28;20234;-85
2021/08/04 11:44:13;;;;;;;2.27;1.60;;;21.30;99.90;;;;;;5067947;28;20317;-82
2021/08/04 11:46:43;;;;;;;2.60;1.90;;;21.60;99.90;;;;;;5059502;28;20739;-82
2021/08/04 11:49:14;;;;;;;2.17;1.50;;;21.60;99.90;;;;;;5046186;28;20241;-83
2021/08/04 11:51:46;;;;;;;2.37;1.80;;;21.60;99.90;;;;;;5055684;28;20775;-82
2021/08/04 11:54:15;;;;;;;3.47;1.77;;;21.80;99.90;;;;;;5068026;28;20237;-83
2021/08/04 11:56:48;;;;;;;2.07;1.63;;;22.10;99.90;;;;;;5059543;28;20251;-83
2021/08/04 11:59:17;;;;;;;2.10;1.73;;;22.20;99.90;;;;;;5048120;28;20243;-83
2021/08/04 12:02:00;;;;;;;5.53;1.83;;;22.20;99.90;;;;;;5036569;28;20248;-85
2021/08/04 12:04:30;;;;;;;2.30;1.83;;;22.50;99.90;;;;;;5044729;28;20885;-83
2021/08/04 12:07:05;;;;;;;2.47;1.77;;;22.60;99.90;;;;;;5043069;28;20231;-83
2021/08/04 12:09:35;;;;;;;1.60;1.47;;;22.90;99.90;;;;;;5043473;28;20980;-84
2021/08/04 12:12:06;;;;;;;1.57;1.23;;;23.40;99.90;;;;;;5033698;28;20351;-83
2021/08/04 12:14:36;;;;;;;2.63;1.40;;;23.40;99.90;;;;;;5047002;28;20614;-83
2021/08/04 12:17:26;;;;;;;4.67;1.33;;;23.30;99.90;;;;;;5044392;28;20386;-82
2021/08/04 12:19:55;;;;;;;2.93;1.50;;;23.40;99.90;;;;;;5043673;28;20307;-82
2021/08/04 12:22:25;;;;;;;1.60;1.50;;;23.60;99.90;;;;;;5044218;28;20793;-83
2021/08/04 12:24:56;;;;;;;1.97;1.67;;;23.80;99.90;;;;;;5043430;28;20239;-83
2021/08/04 12:27:37;;;;;;;1.83;1.27;;;23.60;99.90;;;;;;5043892;28;20296;-83
2021/08/04 12:30:16;;;;;;;1.87;1.30;;;23.50;99.90;;;;;;5045907;28;20241;-84
2021/08/04 12:33:03;;;;;;;2.57;1.20;;;23.20;99.90;;;;;;5049607;28;20263;-83
2021/08/04 12:35:39;;;;;;;2.50;1.30;;;23.00;99.90;;;;;;5045786;28;20345;-83
2021/08/04 12:38:11;;;;;;;1.53;1.40;;;22.90;99.90;;;;;;5045914;28;20325;-82
2021/08/04 12:40:39;;;;;;;1.97;1.53;;;22.90;99.90;;;;;;5040660;28;20332;-83
2021/08/04 12:43:12;;;;;;;2.30;1.50;;;22.90;99.90;;;;;;5045043;28;21417;-83
2021/08/04 12:45:50;;;;;;;3.13;1.40;;;22.80;99.90;;;;;;5041898;28;20777;-82
2021/08/04 12:48:20;;;;;;;2.30;1.43;;;22.70;99.90;;;;;;5043487;28;20697;-81
2021/08/04 12:50:56;;;;;;;1.77;1.63;;;22.80;99.90;;;;;;5034890;28;20637;-82
2021/08/04 12:53:31;;;;;;;2.30;1.10;;;22.80;99.90;;;;;;5038187;28;20243;-82
2021/08/04 12:56:04;;;;;;;1.63;1.33;;;22.90;99.90;;;;;;5044709;28;20560;-82
2021/08/04 12:58:55;;;;;;;2.37;1.43;;;23.00;99.90;;;;;;5047635;28;20660;-82
2021/08/04 13:01:26;;;;;;;1.83;1.30;;;22.90;99.90;;;;;;5029129;28;20267;-84
2021/08/04 13:03:55;;;;;;;2.60;1.57;;;22.90;99.90;;;;;;5030015;28;20242;-83